SBOSBO JSI / LGSK
Speedbird OnlineSpeedbird Online JSI / LGSK

Skiathos Island National Airport
23:32 21.2°C

Location Skiathos, Greece
Latitude: 39.177101135253906
Longitude: 23.503700256347656
Web Wikipedia
Altitude 16 Meter / 54 Feet
Distance 2,268 KM / 1,409 Miles
from London.
Time Zone UTC +3 hours (Europe/Athens)
Codes IATA: JSI
ICAO: LGSK
Currency £1 equals EUR 1.12
Runways
RunwayLength (m)Surface
011628Asphalt
191628Asphalt
Radio
TypeDescriptionFrequency
A/GSKIATHOS RDO563.7
APPSKIATHOS APP126.05
TWRSKIATHOS TWR126.05
Live ATC
METAR LGSK 241850Z 10005KT CAVOK 21/13 Q1018
TAF TAF LGSK 241700Z 2418/2503 VRB05KT 9999 FEW018
Weather As Of 24 Sep 2022 23:32
Description Clear sky
Wind 16 km/h from South-East (146°)
Cloud Cover 0%
Precipitation Rain: none, Snow: none
Sunrise 07:15
Sunset 19:21
Rotations During the last 90 days there were
37 flights from LCY
37 flights to LCY


© 2017-2022 Speedbird Online